• Join FlightAware (Why Join?)
  • Login
  • US Flag GB Flag 
03:10 EDT


 

Airport Tracker/Info


-or-


 

Live Flight TrackerFlight Track Log ✈ DAL2352 ✈ 11-Jul-2013 ✈ KALB - KATL

Flight Track Log - Related Links

Times and Time Zones

All times are in EDT time to prevent confusion due to time zone crossing. See the DAL2352 flight status page for this flight to view local times or setup timezone preferences in your user account.

Time Position Orientation Groundspeed Altitude Reporting Facility
EDT Latitude Longitude Course Direction KTS MPH feet Rate Location/Type
06:28 42.7694 -73.8089 180° South 169 194 1,200  Level Boston Center
06:29 42.8294 -73.8358 342° North 226 260 2,600 1,980 Climbing Boston Center
06:30 42.5088 -74.1379 200° South  Level Estimated
06:30 42.9097 -73.9311 319° Northwest 290 334 6,500  Level Boston Center
06:31 42.4284 -74.2493 198° South  Level Estimated
06:31 42.9525 -74.0031 309° West 270 311 8,600  Level Boston Center
06:32 42.3480 -74.3605 180° South  Level Estimated
06:32 42.9614 -74.1111 276° West 448 516 10,800  Level Boston Center
06:33 42.2675 -74.4713 180° South  Level Estimated
06:33 42.9103 -74.1778 224° Southwest 308 354 12,500  Level Boston Center
06:34 42.8178 -74.2289 202° Southwest 320 368 15,100 2,280 Climbing Boston Center
06:35 42.7242 -74.2150 174° South 341 392 17,100 1,800 Climbing Boston Center
06:36 42.6308 -74.1814 165° South 352 405 18,800 1,320 Climbing Boston Center
06:37 42.5644 -74.1597 166° South 352 405 19,800 1,500 Climbing Boston Center
06:38 42.4444 -74.1142 164° South 363 418 21,800 1,500 Climbing Boston Center
06:39 42.3447 -74.0750 164° South 369 425 22,900 1,020 Climbing Boston Center
06:40 42.2411 -74.0386 165° South 374 430 23,900 900 Climbing Boston Center
06:41 42.1369 -74.0417 181° South 379 436 24,800 960 Climbing Boston Center
06:42 42.0200 -74.0525 184° South 380 437 25,900 840 Climbing Boston Center
06:43 41.9194 -74.0975 198° South 385 443 26,500 660 Climbing Boston Center
06:45 41.7558 -74.1800 201° Southwest 394 453 27,800 660 Climbing New York Center
06:46 41.6522 -74.2303 200° South 394 453 28,500 660 Climbing New York Center
06:47 41.5550 -74.2833 202° Southwest 394 453 29,200 660 Climbing New York Center
06:48 41.4492 -74.3414 202° Southwest 389 448 29,900 600 Climbing New York Center
06:49 41.3433 -74.3967 201° Southwest 408 470 30,500 720 Climbing New York Center
06:50 41.2431 -74.4739 210° Southwest 415 478 31,400 660 Climbing New York Center
06:51 41.1547 -74.5683 219° Southwest 415 478 31,900 240 Climbing New York Center
06:52 41.0664 -74.6597 218° Southwest 415 478 32,000  Climbing New York Center
06:53 40.9797 -74.7536 219° Southwest 415 478 32,000  Level New York Center
06:54 40.8892 -74.8500 219° Southwest 415 478 32,000 -60 Level New York Center
06:55 40.8025 -74.9433 219° Southwest 415 478 31,900  Descending New York Center
06:56 40.7156 -75.0422 221° Southwest 415 478 32,000  Climbing New York Center
06:57 40.6289 -75.1353 219° Southwest 410 472 32,000  Level New York Center
06:58 40.5397 -75.2333 220° Southwest 415 478 32,000  Level New York Center
06:59 40.4508 -75.3258 218° Southwest 415 478 32,000  Level New York Center
07:00 40.3639 -75.4181 219° Southwest 415 478 32,000  Level New York Center
07:01 40.2744 -75.5156 220° Southwest 415 478 32,000  Level New York Center
07:02 40.1950 -75.6242 226° Southwest 410 472 32,000  Level New York Center
07:03 40.1314 -75.7472 236° Southwest 410 472 32,000  Level New York Center
07:04 40.0678 -75.8703 236° Southwest 415 478 32,000  Level New York Center
07:05 40.0061 -75.9958 237° Southwest 415 478 32,000  Level New York Center
07:06 39.9422 -76.1183 236° Southwest 415 478 32,000  Level New York Center
07:07 39.8958 -76.2664 248° West 408 470 32,000  Level New York Center
07:08 39.8886 -76.4172 266° West 408 470 32,000  Level New York Center
07:09 39.8836 -76.5658 268° West 413 475 32,000  Level New York Center
07:10 39.8517 -76.7064 254° West 413 475 32,000  Level New York Center
07:11 39.7711 -76.8131 226° Southwest 399 459 32,000  Level New York Center
07:12 39.6875 -76.9181 224° Southwest 412 474 32,000  Level Washington Center
07:13 39.6053 -77.0217 224° Southwest 412 474 32,000  Level Washington Center
07:14 39.5225 -77.1250 224° Southwest 412 474 32,000  Level Washington Center
07:15 39.4378 -77.2308 224° Southwest 412 474 32,000  Level Washington Center
07:16 39.3553 -77.3336 224° Southwest 412 474 32,000  Level Washington Center
07:18 39.1914 -77.5411 224° Southwest 407 468 32,000  Level Washington Center
07:19 39.1086 -77.6461 225° Southwest 407 468 32,000  Level Washington Center
07:20 39.0147 -77.7583 223° Southwest 407 468 32,000  Level Washington Center
07:21 38.9317 -77.8625 224° Southwest 407 468 32,000  Level Washington Center
07:22 38.8461 -77.9692 224° Southwest 419 482 32,000  Level Washington Center
07:23 38.7628 -78.0703 223° Southwest 419 482 32,000  Level Washington Center
07:24 38.6792 -78.1739 224° Southwest 419 482 32,000  Level Washington Center
07:25 38.5936 -78.2744 223° Southwest 419 482 32,000  Level Washington Center
07:26 38.5122 -78.3750 224° Southwest 419 482 32,000  Level Washington Center
07:27 38.4264 -78.4778 223° Southwest 419 482 32,000  Level Washington Center
07:28 38.3425 -78.5806 224° Southwest 419 482 32,000  Level Washington Center
07:29 38.2758 -78.6625 224° Southwest 419 482 32,000  Level Washington Center
07:30 38.1875 -78.7725 224° Southwest 419 482 32,000  Level Washington Center
07:31 38.0928 -78.8844 223° Southwest 419 482 32,000  Level Washington Center
07:32 38.0064 -78.9861 223° Southwest 419 482 32,000  Level Washington Center
07:33 37.9222 -79.0825 222° Southwest 419 482 32,000  Level Washington Center
07:34 37.8419 -79.1892 226° Southwest 419 482 32,000  Level Washington Center
07:35 37.7722 -79.2856 228° Southwest 419 482 32,000  Level Washington Center
07:36 37.6917 -79.3944 227° Southwest 419 482 32,000  Level Washington Center
07:37 37.6067 -79.5108 227° Southwest 419 482 32,000  Level Washington Center
07:38 37.5367 -79.6094 228° Southwest 425 489 32,000  Level Washington Center
07:39 37.4489 -79.7303 228° Southwest 425 489 32,000  Level Washington Center
07:40 37.3767 -79.8311 228° Southwest 434 499 32,000  Level Washington Center
07:42 37.1894 -80.0814 227° Southwest 401 461 32,000  Level Atlanta Center
07:43 37.1114 -80.1894 228° Southwest 417 480 32,000  Level Atlanta Center
07:44 37.0314 -80.2975 227° Southwest 417 480 32,000  Level Atlanta Center
07:45 36.9572 -80.3969 227° Southwest 416 479 32,000  Level Atlanta Center
07:46 36.8769 -80.5019 226° Southwest 416 479 32,000  Level Atlanta Center
07:47 36.7967 -80.6119 228° Southwest 421 484 32,000  Level Atlanta Center
07:48 36.7161 -80.7164 226° Southwest 421 484 32,000  Level Atlanta Center
07:49 36.6336 -80.8283 227° Southwest 438 504 32,000  Level Atlanta Center
07:50 36.5489 -80.9403 227° Southwest 445 512 32,000  Level Atlanta Center
07:51 36.4642 -81.0544 227° Southwest 445 512 32,000  Level Atlanta Center
07:52 36.3711 -81.1767 227° Southwest 445 512 32,000  Level Atlanta Center
07:53 36.2842 -81.2906 227° Southwest 445 512 32,000  Level Atlanta Center
07:54 36.1989 -81.4039 227° Southwest 450 518 32,000  Level Atlanta Center
07:55 36.1136 -81.5147 226° Southwest 450 518 32,000  Level Atlanta Center
07:56 36.0283 -81.6253 226° Southwest 450 518 32,000  Level Atlanta Center
07:57 35.9408 -81.7381 226° Southwest 456 525 32,000  Level Atlanta Center
07:58 35.8531 -81.8508 226° Southwest 456 525 32,000  Level Atlanta Center
07:59 35.7675 -81.9606 226° Southwest 456 525 32,000  Level Atlanta Center
08:00 35.6753 -82.0678 223° Southwest 456 525 32,000  Level Atlanta Center
08:01 35.5850 -82.1694 222° Southwest 448 516 32,000  Level Atlanta Center
08:02 35.4928 -82.2761 223° Southwest 448 516 32,000  Level Atlanta Center
08:03 35.4025 -82.3800 223° Southwest 448 516 32,000  Level Atlanta Center
08:04 35.3100 -82.4836 222° Southwest 453 521 32,000  Level Atlanta Center
08:05 35.2275 -82.5794 224° Southwest 453 521 32,000  Level Atlanta Center
08:06 35.1369 -82.6800 222° Southwest 453 521 32,000 -660 Level Atlanta Center
08:07 35.0422 -82.7831 222° Southwest 460 529 30,800 -1,500 Descending Atlanta Center
08:08 34.9472 -82.8908 223° Southwest 465 535 29,000 -1,800 Descending Atlanta Center
08:09 34.8500 -82.9933 221° Southwest 470 541 27,300 -1,500 Descending Atlanta Center
08:10 34.7592 -83.1033 225° Southwest 460 529 26,000 -1,440 Descending Atlanta Center
08:11 34.6597 -83.2181 224° Southwest 455 524 24,500 -1,740 Descending Atlanta Center
08:12 34.5664 -83.3172 221° Southwest 450 518 22,600 -2,220 Descending Atlanta Center
08:13 34.4794 -83.4139 223° Southwest 443 510 20,100 -2,460 Descending Atlanta Center
08:14 34.3964 -83.5075 223° Southwest 425 489 17,700 -2,400 Descending Atlanta Center
08:15 34.3131 -83.5986 222° Southwest 409 471 15,400 -2,400 Descending Atlanta Center
08:16 34.2342 -83.6844 222° Southwest 403 464 12,900 -1,740 Descending Atlanta Center
08:17 34.1572 -83.7703 223° Southwest 391 450 12,000 -480 Descending Atlanta Center
08:18 34.0883 -83.8431 221° Southwest 353 406 12,000 -360 Level Atlanta Center
08:19 34.0333 -83.9000 221° Southwest 298 343 11,400 -1,260 Descending Atlanta TRACON
08:20 33.9667 -83.9500 212° Southwest 299 344 9,700 -1,200 Descending Atlanta TRACON
08:21 33.8833 -83.9500 180° South 289 333 9,000 -360 Descending Atlanta TRACON
08:22 33.8167 -83.9500 180° South 288 331 9,000 -360 Level Atlanta TRACON
08:23 33.7333 -83.9667 189° South 242 278 8,300 -960 Descending Atlanta TRACON
08:24 33.6667 -83.9667 180° South 239 275 7,000 -900 Descending Atlanta TRACON
08:25 33.6333 -84.0167 231° Southwest 201 231 6,700 -540 Descending Atlanta TRACON
08:26 33.6333 -84.0833 270° West 192 221 6,000 -720 Descending Atlanta TRACON
08:27 33.6333 -84.1333 270° West 194 223 5,300 -900 Descending Atlanta TRACON
08:28 33.6333 -84.2000 270° West 188 216 4,300 -960 Descending Atlanta TRACON
08:29 33.6333 -84.2667 270° West 191 220 3,400 -960 Descending Atlanta TRACON
08:30 33.6333 -84.3333 270° West 190 219 2,400 -900 Descending Atlanta TRACON
08:31 33.6333 -84.3833 270° West 152 175 1,600 -840 Descending Atlanta TRACON
08:33 33.6367 -84.4279 270° West  Level Estimated
08:40 33.6367 -84.4279 64° Northeast  Level Estimated